Aviation Digital Data Service (ADDS)

Output produced by METARs form (0354 UTC 01 September 2015)
found at http://www.aviationweather.gov/adds/metars/
 
KILG 010351Z 22006KT 10SM CLR 24/20 A3005 RMK AO2 SLP174 T02390200 $
KILG 312335Z 0100/0124 24007KT P6SM SCT050 
     FM011200 34003KT P6SM SKC 
     FM011900 22006KT P6SM FEW050